createdAt,value
2023-01-08T00:01:59.134Z,74.60
2023-01-08T00:04:33.092Z,82.78
2023-01-08T00:07:11.444Z,86.30
2023-01-08T00:09:38.515Z,72.80
2023-01-08T00:12:07.092Z,80.90
2023-01-08T00:14:42.432Z,76.10
2023-01-08T00:17:10.378Z,81.35
2023-01-08T00:19:44.998Z,88.25
2023-01-08T00:22:13.738Z,81.78
2023-01-08T00:27:35.511Z,80.72
2023-01-08T00:30:03.501Z,85.70
2023-01-08T00:32:31.949Z,83.63
2023-01-08T00:35:01.534Z,84.13
2023-01-08T00:37:30.083Z,82.50
2023-01-08T00:39:59.719Z,86.35
2023-01-08T00:42:30.489Z,86.35
2023-01-08T00:44:57.938Z,79.97
2023-01-08T00:47:24.847Z,78.88
2023-01-08T00:49:56.374Z,82.47
2023-01-08T00:52:23.640Z,73.85
2023-01-08T00:54:50.593Z,81.25
2023-01-08T00:57:19.066Z,82.10
2023-01-08T00:59:48.852Z,81.55
2023-01-08T01:02:19.649Z,98.63
2023-01-08T01:04:46.834Z,98.45
2023-01-08T01:07:38.679Z,97.45
2023-01-08T01:10:07.626Z,100.28
2023-01-08T01:12:43.466Z,99.70
2023-01-08T01:15:26.645Z,104.43
2023-01-08T01:17:54.894Z,95.53
2023-01-08T01:20:24.052Z,105.97
2023-01-08T01:22:52.464Z,112.10
2023-01-08T01:25:23.234Z,107.28
2023-01-08T01:28:00.630Z,100.00
2023-01-08T01:30:28.025Z,110.85
2023-01-08T01:32:56.221Z,98.07
2023-01-08T01:35:46.232Z,98.75
2023-01-08T01:38:19.055Z,102.05
2023-01-08T01:40:46.249Z,92.95
2023-01-08T01:43:19.488Z,98.20
2023-01-08T01:45:48.258Z,107.82
2023-01-08T01:48:23.902Z,107.82
2023-01-08T01:50:55.047Z,115.75
2023-01-08T01:53:32.650Z,114.05
2023-01-08T01:56:02.395Z,101.57
2023-01-08T01:58:33.329Z,97.88
2023-01-08T02:01:07.287Z,97.72
2023-01-08T02:03:37.847Z,97.07
2023-01-08T02:06:31.172Z,97.78
2023-01-08T02:09:17.745Z,99.30
2023-01-08T02:12:17.676Z,101.50
2023-01-08T02:14:56.094Z,90.72
2023-01-08T02:17:37.758Z,88.68
2023-01-08T02:20:18.577Z,92.85
2023-01-08T02:23:14.244Z,95.13
2023-01-08T02:26:06.928Z,97.40
2023-01-08T02:28:49.653Z,85.65
2023-01-08T02:31:19.379Z,89.80
2023-01-08T02:33:49.470Z,86.95
2023-01-08T02:36:19.156Z,90.82
2023-01-08T02:39:28.676Z,85.13
2023-01-08T02:42:28.871Z,88.97
2023-01-08T02:45:27.350Z,88.80
2023-01-08T02:48:27.842Z,93.10
2023-01-08T02:51:14.403Z,92.38
2023-01-08T02:53:48.892Z,96.30
2023-01-08T02:56:20.916Z,102.55
2023-01-08T02:58:52.376Z,91.07
2023-01-08T03:01:24.137Z,90.80
2023-01-08T03:03:58.849Z,92.80
2023-01-08T03:06:27.121Z,86.43
2023-01-08T03:09:01.993Z,91.55
2023-01-08T03:11:39.096Z,91.72
2023-01-08T03:14:45.846Z,87.78
2023-01-08T03:17:24.031Z,81.18
2023-01-08T03:20:01.285Z,92.07
2023-01-08T03:22:33.350Z,91.88
2023-01-08T03:25:02.782Z,96.72
2023-01-08T03:27:33.813Z,94.53
2023-01-08T03:30:07.362Z,94.73
2023-01-08T03:32:41.036Z,87.82
2023-01-08T03:35:16.701Z,92.47
2023-01-08T03:37:50.676Z,95.53
2023-01-08T03:40:26.242Z,97.60
2023-01-08T03:42:53.361Z,93.53
2023-01-08T03:45:43.339Z,94.15
2023-01-08T03:48:21.173Z,89.97
2023-01-08T03:50:55.253Z,96.82
2023-01-08T03:53:34.203Z,95.00
2023-01-08T03:56:14.531Z,98.30
2023-01-08T03:58:48.280Z,86.95
2023-01-08T04:01:17.544Z,99.25
2023-01-08T04:03:54.312Z,95.07
2023-01-08T04:09:04.206Z,100.72
2023-01-08T04:11:39.655Z,99.30
2023-01-08T04:14:08.079Z,100.65
2023-01-08T04:16:35.338Z,98.25
2023-01-08T04:19:04.698Z,97.70
2023-01-08T04:21:34.704Z,99.32
2023-01-08T04:24:01.662Z,93.22
2023-01-08T04:26:31.088Z,97.00
2023-01-08T04:28:57.973Z,94.18
2023-01-08T04:31:26.726Z,102.05
2023-01-08T04:33:54.421Z,93.65
2023-01-08T04:36:21.796Z,91.72
2023-01-08T04:38:53.160Z,99.75
2023-01-08T04:41:24.598Z,83.07
2023-01-08T04:43:55.002Z,94.25
2023-01-08T04:46:22.121Z,86.85
2023-01-08T04:48:48.987Z,92.63
2023-01-08T04:51:16.354Z,91.07
2023-01-08T04:53:46.409Z,96.30
2023-01-08T04:56:17.480Z,82.32
2023-01-08T04:58:45.397Z,82.00
2023-01-08T05:01:21.272Z,89.88
2023-01-08T05:03:56.416Z,93.07
2023-01-08T05:06:34.077Z,88.38
2023-01-08T05:09:01.173Z,86.07
2023-01-08T05:11:29.568Z,86.65
2023-01-08T05:14:08.152Z,86.13
2023-01-08T05:16:35.615Z,86.88
2023-01-08T05:19:03.905Z,84.93
2023-01-08T05:21:33.388Z,86.47
2023-01-08T05:24:00.295Z,91.03
2023-01-08T05:26:28.498Z,91.25
2023-01-08T05:28:56.614Z,91.07
2023-01-08T05:31:25.506Z,96.13
2023-01-08T05:33:58.655Z,94.00
2023-01-08T05:36:31.543Z,94.28
2023-01-08T05:39:02.488Z,101.32
2023-01-08T05:41:30.791Z,94.25
2023-01-08T05:43:59.541Z,92.68
2023-01-08T05:46:32.968Z,95.03
2023-01-08T05:49:14.671Z,93.35
2023-01-08T05:51:45.922Z,89.63
2023-01-08T05:54:13.348Z,93.85
2023-01-08T05:56:42.223Z,91.15
2023-01-08T05:59:13.271Z,91.25
2023-01-08T06:01:42.051Z,90.45
2023-01-08T06:06:51.621Z,96.65
2023-01-08T06:09:19.302Z,92.45
2023-01-08T06:11:46.422Z,101.60
2023-01-08T06:14:20.205Z,103.78
2023-01-08T06:16:48.875Z,105.88
2023-01-08T06:19:19.633Z,100.85
2023-01-08T06:21:47.940Z,98.88
2023-01-08T06:24:16.106Z,96.75
2023-01-08T06:26:45.679Z,98.50
2023-01-08T06:29:12.691Z,99.68
2023-01-08T06:31:41.639Z,104.22
2023-01-08T06:34:09.815Z,95.05
2023-01-08T06:36:38.270Z,92.60
2023-01-08T06:39:09.107Z,98.03
2023-01-08T06:41:37.512Z,97.93
2023-01-08T06:44:07.947Z,91.97
2023-01-08T06:46:47.104Z,96.15
2023-01-08T06:49:24.154Z,90.88
2023-01-08T06:51:52.856Z,94.18
2023-01-08T06:54:23.051Z,92.28
2023-01-08T06:56:54.027Z,86.07
2023-01-08T06:59:22.185Z,87.10
2023-01-08T07:01:54.527Z,94.80
2023-01-08T07:04:23.402Z,84.35
2023-01-08T07:06:56.623Z,85.63
2023-01-08T07:09:23.962Z,92.32
2023-01-08T07:11:51.341Z,92.70
2023-01-08T07:14:25.188Z,83.30
2023-01-08T07:16:54.828Z,99.28
2023-01-08T07:19:23.866Z,98.78
2023-01-08T07:21:51.569Z,100.70
2023-01-08T07:24:19.664Z,98.40
2023-01-08T07:26:47.957Z,85.68
2023-01-08T07:29:18.303Z,86.25
2023-01-08T07:31:47.716Z,87.15
2023-01-08T07:34:17.682Z,87.78
2023-01-08T07:36:45.889Z,81.72
2023-01-08T07:42:07.489Z,80.47
2023-01-08T07:44:34.498Z,92.80
2023-01-08T07:47:02.564Z,83.93
2023-01-08T07:49:29.968Z,82.68
2023-01-08T07:51:56.955Z,78.60
2023-01-08T07:54:23.926Z,83.07
2023-01-08T07:56:50.890Z,75.70
2023-01-08T07:59:17.811Z,86.20
2023-01-08T08:01:49.541Z,84.20
2023-01-08T08:04:16.822Z,89.82
2023-01-08T08:06:43.872Z,86.85
2023-01-08T08:09:10.820Z,84.05
2023-01-08T08:11:38.622Z,92.20
2023-01-08T08:14:19.032Z,97.10
2023-01-08T08:17:08.714Z,92.25
2023-01-08T08:19:38.270Z,91.18
2023-01-08T08:22:05.519Z,87.78
2023-01-08T08:24:33.893Z,85.25
2023-01-08T08:27:00.786Z,88.85
2023-01-08T08:29:27.803Z,91.78
2023-01-08T08:31:56.784Z,92.28
2023-01-08T08:34:24.762Z,92.30
2023-01-08T08:36:51.737Z,97.07
2023-01-08T08:39:20.517Z,89.00
2023-01-08T08:41:47.549Z,88.55
2023-01-08T08:44:14.589Z,83.40
2023-01-08T08:46:42.821Z,89.88
2023-01-08T08:49:11.218Z,91.07
2023-01-08T08:51:41.494Z,87.15
2023-01-08T08:54:08.614Z,84.70
2023-01-08T08:56:35.659Z,83.80
2023-01-08T08:59:03.154Z,84.90
2023-01-08T09:01:30.470Z,81.90
2023-01-08T09:03:57.862Z,82.97
2023-01-08T09:06:27.964Z,80.82
2023-01-08T09:08:59.266Z,84.53
2023-01-08T09:11:26.758Z,57.45
2023-01-08T09:13:53.885Z,78.45
2023-01-08T09:16:21.059Z,84.80
2023-01-08T09:18:51.243Z,78.43
2023-01-08T09:21:18.203Z,84.00
2023-01-08T09:23:45.173Z,81.70
2023-01-08T09:26:12.201Z,81.72
2023-01-08T09:28:43.665Z,77.45
2023-01-08T09:31:10.673Z,75.10
2023-01-08T09:33:37.727Z,68.95
2023-01-08T09:36:05.096Z,67.90
2023-01-08T09:38:32.036Z,76.13
2023-01-08T09:41:04.502Z,70.97
2023-01-08T09:43:35.805Z,70.53
2023-01-08T09:46:07.595Z,74.28
2023-01-08T09:51:14.796Z,66.57
2023-01-08T09:53:45.280Z,72.88
2023-01-08T09:56:17.688Z,74.63
2023-01-08T09:58:53.636Z,70.15
2023-01-08T10:01:35.799Z,76.50
2023-01-08T10:04:19.903Z,69.65
2023-01-08T10:06:56.339Z,69.05
2023-01-08T10:09:30.689Z,76.45
2023-01-08T10:12:03.112Z,71.15
2023-01-08T10:14:39.173Z,68.88
2023-01-08T10:17:15.460Z,66.93
2023-01-08T10:19:42.689Z,74.40
2023-01-08T10:22:18.671Z,77.35
2023-01-08T10:24:45.752Z,72.68
2023-01-08T10:27:19.423Z,73.00
2023-01-08T10:29:47.536Z,68.32
2023-01-08T10:32:31.283Z,71.90
2023-01-08T10:34:59.071Z,72.82
2023-01-08T10:37:50.518Z,81.57
2023-01-08T10:40:46.880Z,57.47
2023-01-08T10:43:18.113Z,70.53
2023-01-08T10:46:02.540Z,66.43
2023-01-08T10:48:33.368Z,66.32
2023-01-08T10:51:14.625Z,78.70
2023-01-08T10:53:41.912Z,68.17
2023-01-08T10:56:23.485Z,73.75
2023-01-08T10:58:53.502Z,67.80
2023-01-08T11:01:23.049Z,69.20
2023-01-08T11:03:52.878Z,76.15
2023-01-08T11:06:25.173Z,69.63
2023-01-08T11:08:55.817Z,69.45
2023-01-08T11:11:23.735Z,71.65
2023-01-08T11:14:01.572Z,71.18
2023-01-08T11:16:35.489Z,71.80
2023-01-08T11:19:06.271Z,73.15
2023-01-08T11:21:37.052Z,73.53
2023-01-08T11:24:18.047Z,74.68
2023-01-08T11:26:52.718Z,72.68
2023-01-08T11:29:26.976Z,74.15
2023-01-08T11:32:09.947Z,74.75
2023-01-08T11:34:55.508Z,76.88
2023-01-08T11:37:52.476Z,77.35
2023-01-08T11:40:39.910Z,72.32
2023-01-08T11:43:26.684Z,80.07
2023-01-08T11:45:56.616Z,78.70
2023-01-08T11:48:50.027Z,82.60
2023-01-08T11:51:48.518Z,76.07
2023-01-08T11:54:41.803Z,77.25
2023-01-08T11:57:25.273Z,77.47
2023-01-08T12:00:01.544Z,81.63
2023-01-08T12:02:52.576Z,77.82
2023-01-08T12:05:42.146Z,79.57
2023-01-08T12:08:32.598Z,80.47
2023-01-08T12:11:05.615Z,87.35
2023-01-08T12:14:02.865Z,90.57
2023-01-08T12:16:59.151Z,89.57
2023-01-08T12:19:47.726Z,86.93
2023-01-08T12:22:28.238Z,88.95
2023-01-08T12:25:16.760Z,85.28
2023-01-08T12:28:02.249Z,83.00
2023-01-08T12:31:06.385Z,75.97
2023-01-08T12:33:53.494Z,73.50
2023-01-08T12:36:35.323Z,76.93
2023-01-08T12:39:27.906Z,71.85
2023-01-08T12:42:03.292Z,63.38
2023-01-08T12:44:32.498Z,62.15
2023-01-08T12:47:03.893Z,60.50
2023-01-08T12:49:59.007Z,60.90
2023-01-08T12:52:36.799Z,57.63
2023-01-08T12:55:25.730Z,53.97
2023-01-08T12:58:02.535Z,50.80
2023-01-08T13:00:58.935Z,51.45
2023-01-08T13:03:28.242Z,52.25
2023-01-08T13:06:10.011Z,59.28
2023-01-08T13:08:38.974Z,55.30
2023-01-08T13:11:06.826Z,55.42
2023-01-08T13:13:37.241Z,53.67
2023-01-08T13:16:07.090Z,54.58
2023-01-08T13:18:34.400Z,53.03
2023-01-08T13:21:02.993Z,54.90
2023-01-08T13:23:38.461Z,53.63
2023-01-08T13:26:07.096Z,51.80
2023-01-08T13:28:37.039Z,49.45
2023-01-08T13:31:27.313Z,47.97
2023-01-08T13:33:55.549Z,53.80
2023-01-08T13:36:28.070Z,41.72
2023-01-08T13:39:02.402Z,42.63
2023-01-08T13:41:33.102Z,38.33
2023-01-08T13:44:19.716Z,40.33
2023-01-08T13:46:54.363Z,48.72
2023-01-08T13:49:28.164Z,39.78
2023-01-08T13:51:55.173Z,40.25
2023-01-08T13:54:37.821Z,72.07
2023-01-08T13:57:24.131Z,50.83
2023-01-08T13:59:57.352Z,40.40
2023-01-08T14:02:33.434Z,37.80
2023-01-08T14:05:02.226Z,36.92
2023-01-08T14:07:29.364Z,39.72
2023-01-08T14:10:06.951Z,34.63
2023-01-08T14:12:35.203Z,35.60
2023-01-08T14:15:04.379Z,38.75
2023-01-08T14:17:32.665Z,35.38
2023-01-08T14:19:59.932Z,41.85
2023-01-08T14:22:31.745Z,40.10
2023-01-08T14:27:31.550Z,41.53
2023-01-08T14:29:58.853Z,42.05
2023-01-08T14:32:31.101Z,40.08
2023-01-08T14:35:00.074Z,42.40
2023-01-08T14:37:27.131Z,41.90
2023-01-08T14:39:55.110Z,54.90
2023-01-08T14:42:44.402Z,71.28
2023-01-08T14:45:32.674Z,46.92
2023-01-08T14:48:34.285Z,46.35
2023-01-08T14:51:09.214Z,37.05
2023-01-08T14:53:38.861Z,50.33
2023-01-08T14:56:06.933Z,50.58
2023-01-08T14:58:43.320Z,54.40
2023-01-08T15:01:19.982Z,44.22
2023-01-08T15:03:52.339Z,46.70
2023-01-08T15:06:27.591Z,51.80
2023-01-08T15:08:54.714Z,46.10
2023-01-08T15:11:31.288Z,46.33
2023-01-08T15:13:58.546Z,47.65
2023-01-08T15:16:39.948Z,48.95
2023-01-08T15:19:06.906Z,49.15
2023-01-08T15:21:35.138Z,45.55
2023-01-08T15:24:03.885Z,45.33
2023-01-08T15:26:31.626Z,49.83
2023-01-08T15:29:04.987Z,42.65
2023-01-08T15:31:39.456Z,44.67
2023-01-08T15:34:08.761Z,45.38
2023-01-08T15:36:35.658Z,47.90
2023-01-08T15:39:03.607Z,48.45
2023-01-08T15:41:54.037Z,44.67
2023-01-08T15:44:21.762Z,52.38
2023-01-08T15:46:51.015Z,43.88
2023-01-08T15:49:18.301Z,42.05
2023-01-08T15:51:48.393Z,38.25
2023-01-08T15:54:15.900Z,57.42
2023-01-08T15:56:43.200Z,44.65
2023-01-08T15:59:10.048Z,40.05
2023-01-08T16:01:37.029Z,38.47
2023-01-08T16:04:04.072Z,31.52
2023-01-08T16:06:31.661Z,32.80
2023-01-08T16:09:00.411Z,35.00
2023-01-08T16:11:27.855Z,32.05
2023-01-08T16:13:55.300Z,35.70
2023-01-08T16:16:22.390Z,35.83
2023-01-08T16:18:49.527Z,37.25
2023-01-08T16:21:16.579Z,33.45
2023-01-08T16:23:43.523Z,34.42
2023-01-08T16:26:15.264Z,35.35
2023-01-08T16:28:42.566Z,34.08
2023-01-08T16:31:10.719Z,30.60
2023-01-08T16:33:37.941Z,35.42
2023-01-08T16:36:07.911Z,54.90
2023-01-08T16:38:35.589Z,42.53
2023-01-08T16:41:02.873Z,38.42
2023-01-08T16:43:30.829Z,35.47
2023-01-08T16:46:03.325Z,30.50
2023-01-08T16:48:30.729Z,32.60
2023-01-08T16:51:05.207Z,32.15
2023-01-08T16:53:32.795Z,35.78
2023-01-08T16:56:00.447Z,36.53
2023-01-08T16:58:27.697Z,36.38
2023-01-08T17:00:54.685Z,37.38
2023-01-08T17:03:22.513Z,33.63
2023-01-08T17:05:50.144Z,32.88
2023-01-08T17:08:19.707Z,35.50
2023-01-08T17:10:47.033Z,33.95
2023-01-08T17:13:14.228Z,29.40
2023-01-08T17:15:41.346Z,25.98
2023-01-08T17:18:11.108Z,29.33
2023-01-08T17:20:37.996Z,25.40
2023-01-08T17:23:05.099Z,26.08
2023-01-08T17:25:31.991Z,27.77
2023-01-08T17:27:58.931Z,33.47
2023-01-08T17:30:25.824Z,35.33
2023-01-08T17:32:52.680Z,38.17
2023-01-08T17:35:19.599Z,39.78
2023-01-08T17:37:48.079Z,44.95
2023-01-08T17:40:15.133Z,49.67
2023-01-08T17:42:41.999Z,38.63
2023-01-08T17:45:09.427Z,38.13
2023-01-08T17:47:37.378Z,35.63
2023-01-08T17:50:05.837Z,36.13
2023-01-08T17:52:37.086Z,38.85
2023-01-08T17:55:04.380Z,36.78
2023-01-08T17:57:31.738Z,39.42
2023-01-08T18:00:00.021Z,34.60
2023-01-08T18:02:27.906Z,40.45
2023-01-08T18:04:54.839Z,39.95
2023-01-08T18:07:24.521Z,40.45
2023-01-08T18:09:54.522Z,40.42
2023-01-08T18:12:21.518Z,47.15
2023-01-08T18:14:48.352Z,38.05
2023-01-08T18:17:15.336Z,39.70
2023-01-08T18:19:42.371Z,40.55
2023-01-08T18:22:09.610Z,41.28
2023-01-08T18:24:36.557Z,38.83
2023-01-08T18:27:03.577Z,41.22
2023-01-08T18:29:30.687Z,44.30
2023-01-08T18:32:01.787Z,40.47
2023-01-08T18:34:28.702Z,43.15
2023-01-08T18:36:55.656Z,43.33
2023-01-08T18:39:22.574Z,60.17
2023-01-08T18:42:07.857Z,152.60
2023-01-08T18:44:34.999Z,74.07
2023-01-08T18:47:02.022Z,44.90
2023-01-08T18:49:29.528Z,26.30
2023-01-08T18:51:56.452Z,16.67
2023-01-08T18:54:23.336Z,12.60
2023-01-08T18:56:51.306Z,14.90
2023-01-08T18:59:21.114Z,33.95
2023-01-08T19:01:48.419Z,30.33
2023-01-08T19:04:21.260Z,32.85
2023-01-08T19:06:50.526Z,34.63
2023-01-08T19:09:17.486Z,26.88
2023-01-08T19:11:44.532Z,57.00
2023-01-08T19:14:17.625Z,56.92
2023-01-08T19:16:49.712Z,29.55
2023-01-08T19:19:19.997Z,17.05
2023-01-08T19:21:48.232Z,12.65
2023-01-08T19:24:15.352Z,11.77
2023-01-08T19:26:42.364Z,19.85
2023-01-08T19:29:11.292Z,12.75
2023-01-08T19:31:38.312Z,24.58
2023-01-08T19:34:07.519Z,12.10
2023-01-08T19:36:43.623Z,15.02
2023-01-08T19:39:14.440Z,18.13
2023-01-08T19:42:12.309Z,12.48
2023-01-08T19:44:39.352Z,13.98
2023-01-08T19:47:10.712Z,15.65
2023-01-08T19:49:49.241Z,15.43
2023-01-08T19:52:17.745Z,11.07
2023-01-08T19:54:46.793Z,12.10
2023-01-08T19:57:14.083Z,13.07
2023-01-08T19:59:44.547Z,14.25
2023-01-08T20:02:11.919Z,18.65
2023-01-08T20:04:43.539Z,20.65
2023-01-08T20:07:11.413Z,17.42
2023-01-08T20:09:39.006Z,24.55
2023-01-08T20:12:06.616Z,18.27
2023-01-08T20:14:34.408Z,15.88
2023-01-08T20:17:01.891Z,14.73
2023-01-08T20:19:28.937Z,12.63
2023-01-08T20:21:57.696Z,10.15
2023-01-08T20:24:25.097Z,9.55
2023-01-08T20:26:53.777Z,10.32
2023-01-08T20:29:20.849Z,37.25
2023-01-08T20:31:50.283Z,11.88
2023-01-08T20:34:18.678Z,17.38
2023-01-08T20:36:46.087Z,14.27
2023-01-08T20:39:15.212Z,11.60
2023-01-08T20:41:50.023Z,13.38
2023-01-08T20:44:28.572Z,13.63
2023-01-08T20:46:55.587Z,14.25
2023-01-08T20:49:25.455Z,13.80
2023-01-08T20:51:59.055Z,12.93
2023-01-08T20:54:27.754Z,9.45
2023-01-08T20:57:00.002Z,10.05
2023-01-08T20:59:27.457Z,8.90
2023-01-08T21:01:55.062Z,7.38
2023-01-08T21:04:23.012Z,9.30
2023-01-08T21:06:54.361Z,8.02
2023-01-08T21:09:21.907Z,9.82
2023-01-08T21:11:49.110Z,6.05
2023-01-08T21:14:16.169Z,6.35
2023-01-08T21:16:43.236Z,9.32
2023-01-08T21:19:11.644Z,9.02
2023-01-08T21:21:40.861Z,10.05
2023-01-08T21:24:14.941Z,8.15
2023-01-08T21:26:44.309Z,7.68
2023-01-08T21:29:16.033Z,8.52
2023-01-08T21:31:52.414Z,7.63
2023-01-08T21:34:30.367Z,7.88
2023-01-08T21:40:00.029Z,5.65
2023-01-08T21:42:45.766Z,5.97
2023-01-08T21:45:29.112Z,7.03
2023-01-08T21:47:58.874Z,7.70
2023-01-08T21:50:26.246Z,8.15
2023-01-08T21:53:11.783Z,8.98
2023-01-08T21:55:38.772Z,10.13
2023-01-08T21:58:05.902Z,6.60
2023-01-08T22:00:32.951Z,6.85
2023-01-08T22:03:00.060Z,5.70
2023-01-08T22:05:27.570Z,5.05
2023-01-08T22:07:54.504Z,8.50
2023-01-08T22:10:21.385Z,7.72
2023-01-08T22:12:48.379Z,5.25
2023-01-08T22:15:15.877Z,5.35
2023-01-08T22:17:42.774Z,4.43
2023-01-08T22:20:10.547Z,3.80
2023-01-08T22:22:38.448Z,3.70
2023-01-08T22:25:07.816Z,3.72
2023-01-08T22:27:34.809Z,2.67
2023-01-08T22:30:01.702Z,2.15
2023-01-08T22:32:28.568Z,3.22
2023-01-08T22:34:55.597Z,4.72
2023-01-08T22:37:22.794Z,5.97
2023-01-08T22:39:49.811Z,1.70
2023-01-08T22:42:17.440Z,1.40
2023-01-08T22:44:44.363Z,1.05
2023-01-08T22:47:11.379Z,1.75
2023-01-08T22:49:38.581Z,1.70
2023-01-08T22:52:06.282Z,1.83
2023-01-08T22:54:33.334Z,1.75
2023-01-08T22:57:00.191Z,0.90
2023-01-08T22:59:27.042Z,1.33
2023-01-08T23:01:54.060Z,0.77
2023-01-08T23:04:20.973Z,0.95
2023-01-08T23:06:47.930Z,1.23
2023-01-08T23:09:14.871Z,0.75
2023-01-08T23:11:41.859Z,0.60
2023-01-08T23:14:13.346Z,0.50
2023-01-08T23:16:41.768Z,0.50
2023-01-08T23:19:08.842Z,0.70
2023-01-08T23:21:38.555Z,2.03
2023-01-08T23:24:07.339Z,1.63
2023-01-08T23:26:34.246Z,0.65
2023-01-08T23:29:01.207Z,0.95
2023-01-08T23:31:30.454Z,0.77
2023-01-08T23:33:58.073Z,0.50
2023-01-08T23:36:25.691Z,2.85
2023-01-08T23:38:55.135Z,0.45
2023-01-08T23:41:26.121Z,2.17
2023-01-08T23:43:54.649Z,1.10
2023-01-08T23:46:21.546Z,0.45
2023-01-08T23:48:50.982Z,0.60
2023-01-08T23:51:18.417Z,0.50
2023-01-08T23:53:45.343Z,0.75
2023-01-08T23:56:12.694Z,1.50
2023-01-08T23:58:42.315Z,0.65
